Climatologie mensuelle pour janvier 2006

Valeurs journalières de 0h à 0h
mois : année :
Jour Température Vent Pluie Humidité Pression Ensoleillement (% max)
min moy max Vent moyen (rafale max) Secteur
1 0 °C 5.2 °C 0 °C 3.7 km/h ( 24.7999992370605 km/h ) SSE 3.1 mm 73 % 1007.6 hPa 0:00 h   (0%)
2 0 °C 3.6 °C 0 °C 4.2 km/h ( 28.1000003814697 km/h ) SSE 3.6 mm 80 % 1015.2 hPa 0:00 h   (0%)
3 0 °C 3.4 °C 0 °C 13.2 km/h ( 40.7000007629395 km/h ) NNE 0 mm 66 % 1023.8 hPa 0:00 h   (0%)
4 0 °C 1.6 °C 0 °C 7.5 km/h ( 31.2999992370605 km/h ) NNE 0 mm 70 % 1021.4 hPa 0:00 h   (0%)
5 0 °C 0.9 °C 0 °C 1 km/h ( 13.3000001907349 km/h ) SSO 0 mm 71 % 1015.1 hPa 0:00 h   (0%)
6 0 °C 0.4 °C 0 °C 2.1 km/h ( 15.1000003814697 km/h ) NE 0 mm 75 % 1017.3 hPa 0:00 h   (0%)
7 0 °C 0 °C 0 °C 0.6 km/h ( 5.80000019073486 km/h ) NE 0 mm 79 % 1022.9 hPa 0:00 h   (0%)
8 0 °C 0 °C 0 °C 0.5 km/h ( 7.19999980926514 km/h ) NE 0 mm 80 % 1025.2 hPa 0:00 h   (0%)
9 0 °C -0.2 °C 0 °C 0.7 km/h ( 7.59999990463257 km/h ) SE 0 mm 80 % 1027.5 hPa 0:00 h   (0%)
10 0 °C -0.6 °C 0 °C 0.6 km/h ( 6.80000019073486 km/h ) NE 0 mm 78 % 1029.9 hPa 0:00 h   (0%)
11 0 °C -1.3 °C 0 °C 1.2 km/h ( 7.59999990463257 km/h ) SE 0 mm 78 % 1030.7 hPa 0:00 h   (0%)
12 0 °C -0.9 °C 0 °C 0.2 km/h ( 5 km/h ) SSE 0 mm 79 % 1029.7 hPa 0:00 h   (0%)
13 0 °C -4.1 °C 0 °C 0.4 km/h ( 10.3999996185303 km/h ) SSE 0 mm 82 % 1029.5 hPa 0:00 h   (0%)
14 -2.6 °C -2.5 °C 0 °C 0.8 km/h ( 7.59999990463257 km/h ) SSE 0 mm 82 % 1029.1 hPa 0:00 h   (0%)
15 -4 °C -2.5 °C -0.7 °C 0.8 km/h ( 9.69999980926514 km/h ) S 0 mm 83 % 1024.8 hPa 0:00 h   (0%)
16 -3.4 °C -2.1 °C -0.6 °C 0.7 km/h ( 11.3000001907349 km/h ) O 0.2 mm 86 % 1022.2 hPa 0:00 h   (0%)
17 -1.4 °C 3.3 °C 7 °C 3.7 km/h ( 41.7999992370605 km/h ) SSE 8.8 mm 85 % 1014.6 hPa 0:00 h   (0%)
18 2.9 °C 6 °C 8.8 °C 1.5 km/h ( 29 km/h ) SSE 2.2 mm 82 % 1013.2 hPa 0:00 h   (0%)
19 -0.7 °C 3.3 °C 9.6 °C 0.6 km/h ( 11.3000001907349 km/h ) SSE 0 mm 87 % 1021.7 hPa 0:00 h   (0%)
20 0.7 °C 3.3 °C 8.2 °C 0.8 km/h ( 14.5 km/h ) SSE 0 mm 85 % 1024.2 hPa 0:00 h   (0%)
21 0.1 °C 4.9 °C 9.8 °C 0.9 km/h ( 12.0999999046326 km/h ) SSE 0 mm 78 % 1023.3 hPa 0:00 h   (0%)
22 -1.1 °C 3.5 °C 5.8 °C 6.3 km/h ( 22.5 km/h ) ESE 0 mm 72 % 1026.5 hPa 0:00 h   (0%)
23 -1.4 °C 0.6 °C 2.5 °C 7.7 km/h ( 22.5333330366347 km/h ) E 0 mm 73 % 1028.1 hPa 0:00 h   (0%)
24 -6.1 °C -2 °C 0.5 °C 2 km/h ( 12.7100001335144 km/h ) ENE 0 mm 76 % 1030.1 hPa 0:00 h   (0%)
25 -7.4 °C -2.6 °C 3.3 °C 1.2 km/h ( 10.2900001525879 km/h ) SSE 0 mm 81 % 1021.6 hPa 0:00 h   (0%)
26 -2.9 °C 0.9 °C 4.5 °C 1 km/h ( 12.2300000667572 km/h ) E 0 mm 71 % 1010.8 hPa 0:00 h   (0%)
27 -0.9 °C -0.2 °C 0.6 °C 2.5 km/h ( 11.1200001478195 km/h ) ENE 0 mm 74 % 1013.7 hPa 0:00 h   (0%)
28 -0.8 °C 0.9 °C 3.3 °C 2.5 km/h ( 10.310000038147 km/h ) E 0 mm 72 % 1014.3 hPa 0:00 h   (0%)
29 -2.8 °C 0.7 °C 5.1 °C 1.3 km/h ( 5.76000007390976 km/h ) SSE 0 mm 78 % 1019.3 hPa 0:00 h   (0%)
30 -5.2 °C -0.9 °C 5.1 °C 2.4 km/h ( 9.34000000953674 km/h ) SSE 0 mm 82 % 1021.3 hPa 0:00 h   (0%)
31 -5.3 °C -0.9 °C 5.7 °C 1.6 km/h ( 6.09000008106232 km/h ) SSE 0 mm 81 % 1021.6 hPa 0:00 h   (0%)
-7.4 °C 0.7 °C 9.8 °C 2.4 km/h (41.7999992370605 km/h) 17.9 mm 78 % 1021.8 hPa 0:00 h

Température moyenne mensuelle : 0.7 °C
Moyenne des Tn : -1.4 °C
Tn mensuelle : -7.4 °C
Moyenne des Tx : 2.5 °C
Tx mensuelle : 9.8 °C

Vent moyen pour le mois : 2.4 km/h de secteur
Rafale maxi : 41.7999992370605 km/h

Pluviometrie mensuelle : 17.9 mm avec un maximum journalier de 8.8 mm

Nombre de jours :

  • avec gelée : 28
  • avec forte gelée (<=-5): 4
  • sans dégel : 16
  • avec chaleur (>=30): 0
  • avec canicule (>=35): 0
  • avec pluie : 5
  • avec plus de 1mm : 4
  • avec plus de 5mm : 1
  • avec plus de 10mm : 0